createdAt,value
2019-01-25T00:00:16.407Z,50.33
2019-01-25T00:02:44.635Z,50.70
2019-01-25T00:05:12.839Z,50.37
2019-01-25T00:07:41.048Z,50.77
2019-01-25T00:10:09.736Z,53.83
2019-01-25T00:12:37.931Z,51.00
2019-01-25T00:15:09.072Z,50.47
2019-01-25T00:17:37.282Z,52.07
2019-01-25T00:20:10.730Z,50.57
2019-01-25T00:22:38.978Z,53.47
2019-01-25T00:25:07.261Z,52.80
2019-01-25T00:27:35.572Z,53.47
2019-01-25T00:30:08.787Z,55.97
2019-01-25T00:32:36.995Z,50.63
2019-01-25T00:35:06.044Z,52.07
2019-01-25T00:37:34.244Z,51.97
2019-01-25T00:40:06.404Z,52.10
2019-01-25T00:42:32.460Z,52.33
2019-01-25T00:45:00.659Z,53.17
2019-01-25T00:47:28.939Z,51.97
2019-01-25T00:49:57.154Z,50.00
2019-01-25T00:52:25.359Z,52.93
2019-01-25T00:54:53.572Z,54.03
2019-01-25T00:57:21.787Z,53.70
2019-01-25T00:59:49.986Z,50.77
2019-01-25T01:02:18.191Z,51.90
2019-01-25T01:04:46.399Z,47.40
2019-01-25T01:07:14.601Z,52.60
2019-01-25T01:09:42.816Z,50.50
2019-01-25T01:12:11.016Z,48.17
2019-01-25T01:14:39.232Z,50.60
2019-01-25T01:17:26.875Z,50.77
2019-01-25T01:20:15.595Z,49.77
2019-01-25T01:22:43.803Z,49.80
2019-01-25T01:25:12.755Z,51.80
2019-01-25T01:27:40.959Z,52.90
2019-01-25T01:30:12.475Z,53.00
2019-01-25T01:32:40.683Z,53.43
2019-01-25T01:35:08.959Z,53.20
2019-01-25T01:37:37.168Z,52.17
2019-01-25T01:40:08.640Z,58.07
2019-01-25T01:42:36.856Z,52.70
2019-01-25T01:45:07.011Z,51.67
2019-01-25T01:47:35.219Z,58.03
2019-01-25T01:50:06.035Z,55.83
2019-01-25T01:52:34.236Z,49.77
2019-01-25T01:55:02.447Z,54.93
2019-01-25T01:57:30.655Z,48.13
2019-01-25T01:59:58.860Z,51.70
2019-01-25T02:02:27.077Z,49.47
2019-01-25T02:04:55.267Z,54.03
2019-01-25T02:07:24.164Z,51.10
2019-01-25T02:09:52.363Z,49.50
2019-01-25T02:12:20.643Z,50.60
2019-01-25T02:14:48.847Z,52.10
2019-01-25T02:17:17.039Z,51.13
2019-01-25T02:19:45.244Z,51.03
2019-01-25T02:22:13.450Z,50.93
2019-01-25T02:24:41.668Z,54.33
2019-01-25T02:27:09.868Z,50.03
2019-01-25T02:29:38.075Z,51.07
2019-01-25T02:32:06.280Z,51.70
2019-01-25T02:34:34.487Z,51.87
2019-01-25T02:37:02.764Z,49.53
2019-01-25T02:39:30.995Z,51.30
2019-01-25T02:41:59.190Z,50.00
2019-01-25T02:44:27.391Z,50.20
2019-01-25T02:46:55.603Z,51.53
2019-01-25T02:49:23.807Z,53.13
2019-01-25T02:51:52.019Z,51.93
2019-01-25T02:54:20.223Z,52.40
2019-01-25T02:56:48.459Z,51.67
2019-01-25T02:59:16.646Z,50.03
2019-01-25T03:01:44.842Z,51.37
2019-01-25T03:04:13.051Z,50.30
2019-01-25T03:06:41.244Z,52.43
2019-01-25T03:09:09.621Z,47.27
2019-01-25T03:11:37.831Z,52.03
2019-01-25T03:14:06.039Z,51.47
2019-01-25T03:16:34.241Z,52.03
2019-01-25T03:19:02.448Z,51.53
2019-01-25T03:21:30.651Z,51.43
2019-01-25T03:23:58.863Z,50.97
2019-01-25T03:26:27.069Z,51.23
2019-01-25T03:28:55.280Z,50.83
2019-01-25T03:31:23.491Z,50.53
2019-01-25T03:33:51.701Z,50.93
2019-01-25T03:36:19.911Z,49.83
2019-01-25T03:38:48.109Z,51.50
2019-01-25T03:41:16.320Z,51.60
2019-01-25T03:43:44.528Z,53.23
2019-01-25T03:46:12.735Z,51.33
2019-01-25T03:48:40.948Z,53.40
2019-01-25T03:51:09.152Z,53.73
2019-01-25T03:53:37.355Z,53.43
2019-01-25T03:56:05.566Z,52.30
2019-01-25T03:58:33.764Z,51.90
2019-01-25T04:01:01.988Z,50.80
2019-01-25T04:03:30.264Z,51.30
2019-01-25T04:05:58.486Z,51.57
2019-01-25T04:08:26.680Z,52.57
2019-01-25T04:11:03.097Z,51.50
2019-01-25T04:13:24.814Z,52.40
2019-01-25T04:15:53.021Z,52.40
2019-01-25T04:18:21.223Z,53.33
2019-01-25T04:20:49.439Z,52.00
2019-01-25T04:23:17.652Z,53.00
2019-01-25T04:25:45.852Z,49.90
2019-01-25T04:28:14.080Z,52.97
2019-01-25T04:30:42.279Z,51.33
2019-01-25T04:33:10.491Z,51.20
2019-01-25T04:35:38.692Z,50.73
2019-01-25T04:38:06.917Z,52.70
2019-01-25T04:40:35.119Z,52.37
2019-01-25T04:43:03.321Z,54.00
2019-01-25T04:45:31.537Z,55.27
2019-01-25T04:47:59.728Z,54.77
2019-01-25T04:50:27.945Z,51.37
2019-01-25T04:52:56.143Z,52.73
2019-01-25T04:55:28.932Z,51.63
2019-01-25T04:58:11.967Z,51.83
2019-01-25T05:00:40.173Z,51.83
2019-01-25T05:03:08.367Z,52.43
2019-01-25T05:05:36.571Z,51.23
2019-01-25T05:08:10.998Z,50.17
2019-01-25T05:10:39.207Z,54.47
2019-01-25T05:13:07.413Z,52.13
2019-01-25T05:15:35.622Z,52.70
2019-01-25T05:18:03.896Z,50.17
2019-01-25T05:20:32.091Z,52.87
2019-01-25T05:23:03.148Z,55.70
2019-01-25T05:25:31.341Z,50.87
2019-01-25T05:28:09.753Z,50.40
2019-01-25T05:30:58.500Z,54.23
2019-01-25T05:33:26.715Z,49.17
2019-01-25T05:35:54.929Z,51.27
2019-01-25T05:38:23.132Z,50.37
2019-01-25T05:40:51.331Z,52.60
2019-01-25T05:43:19.528Z,51.40
2019-01-25T05:45:47.751Z,50.27
2019-01-25T05:48:15.975Z,51.40
2019-01-25T05:50:44.175Z,49.13
2019-01-25T05:53:12.391Z,51.10
2019-01-25T05:55:40.599Z,52.03
2019-01-25T05:58:10.136Z,50.30
2019-01-25T06:00:39.979Z,50.83
2019-01-25T06:03:13.496Z,50.60
2019-01-25T06:05:41.759Z,53.13
2019-01-25T06:08:13.351Z,50.83
2019-01-25T06:10:41.551Z,50.33
2019-01-25T06:13:10.027Z,54.40
2019-01-25T06:15:38.271Z,53.53
2019-01-25T06:18:06.488Z,52.17
2019-01-25T06:20:34.687Z,53.60
2019-01-25T06:23:02.899Z,53.40
2019-01-25T06:25:31.113Z,53.87
2019-01-25T06:27:59.404Z,54.10
2019-01-25T06:30:27.615Z,59.33
2019-01-25T06:32:55.815Z,57.63
2019-01-25T06:35:26.008Z,56.73
2019-01-25T06:37:54.396Z,58.70
2019-01-25T06:40:22.595Z,58.90
2019-01-25T06:42:50.795Z,59.07
2019-01-25T06:45:19.003Z,57.73
2019-01-25T06:47:47.207Z,61.77
2019-01-25T06:50:15.412Z,58.03
2019-01-25T06:52:43.611Z,61.73
2019-01-25T06:55:11.807Z,60.80
2019-01-25T06:57:44.615Z,55.63
2019-01-25T07:00:17.732Z,62.27
2019-01-25T07:02:45.939Z,61.87
2019-01-25T07:05:14.131Z,59.43
2019-01-25T07:07:43.600Z,63.73
2019-01-25T07:10:14.743Z,60.03
2019-01-25T07:12:42.935Z,61.40
2019-01-25T07:15:13.155Z,62.70
2019-01-25T07:17:41.350Z,64.90
2019-01-25T07:20:14.511Z,61.80
2019-01-25T07:22:42.707Z,61.40
2019-01-25T07:25:15.310Z,60.87
2019-01-25T07:27:43.528Z,55.40
2019-01-25T07:30:17.875Z,55.80
2019-01-25T07:32:46.103Z,50.57
2019-01-25T07:35:14.353Z,54.53
2019-01-25T07:37:42.629Z,46.07
2019-01-25T07:40:11.348Z,48.80
2019-01-25T07:42:39.656Z,50.23
2019-01-25T07:45:14.388Z,47.87
2019-01-25T07:47:43.065Z,43.17
2019-01-25T07:50:12.101Z,44.50
2019-01-25T07:52:40.350Z,38.17
2019-01-25T07:55:11.016Z,23.70
2019-01-25T07:57:39.308Z,25.13
2019-01-25T08:00:15.379Z,18.77
2019-01-25T08:02:43.596Z,26.03
2019-01-25T08:05:11.817Z,30.30
2019-01-25T08:07:40.739Z,24.70
2019-01-25T08:10:15.376Z,26.80
2019-01-25T08:12:43.716Z,28.73
2019-01-25T08:15:15.562Z,26.07
2019-01-25T08:17:43.752Z,16.70
2019-01-25T08:20:13.143Z,20.23
2019-01-25T08:22:41.375Z,17.43
2019-01-25T08:25:09.645Z,20.00
2019-01-25T08:27:37.845Z,14.70
2019-01-25T08:30:23.480Z,11.07
2019-01-25T08:32:51.995Z,16.67
2019-01-25T08:35:20.525Z,18.93
2019-01-25T08:37:48.732Z,17.50
2019-01-25T08:40:17.738Z,21.43
2019-01-25T08:42:45.929Z,21.37
2019-01-25T08:45:15.475Z,23.40
2019-01-25T08:47:43.713Z,25.47
2019-01-25T08:50:15.216Z,22.47
2019-01-25T08:52:43.463Z,28.10
2019-01-25T08:55:11.708Z,26.77
2019-01-25T08:57:39.941Z,25.47
2019-01-25T09:00:16.805Z,18.40
2019-01-25T09:02:45.067Z,11.50
2019-01-25T09:05:13.251Z,8.80
2019-01-25T09:07:41.475Z,17.93
2019-01-25T09:10:12.716Z,13.27
2019-01-25T09:12:40.947Z,11.20
2019-01-25T09:15:12.107Z,17.93
2019-01-25T09:17:40.291Z,20.83
2019-01-25T09:20:14.607Z,24.27
2019-01-25T09:22:42.059Z,10.00
2019-01-25T09:25:10.263Z,12.53
2019-01-25T09:27:38.455Z,14.93
2019-01-25T09:30:09.903Z,19.60
2019-01-25T09:32:38.107Z,11.23
2019-01-25T09:35:07.033Z,10.87
2019-01-25T09:37:35.244Z,17.17
2019-01-25T09:40:04.504Z,12.73
2019-01-25T09:42:32.696Z,10.93
2019-01-25T09:45:00.896Z,16.40
2019-01-25T09:47:29.663Z,21.93
2019-01-25T09:49:57.848Z,20.07
2019-01-25T09:52:26.048Z,19.43
2019-01-25T09:54:54.248Z,21.27
2019-01-25T09:57:22.443Z,19.30
2019-01-25T09:59:50.635Z,15.07
2019-01-25T10:02:18.835Z,20.00
2019-01-25T10:04:47.032Z,13.73
2019-01-25T10:07:15.223Z,17.73
2019-01-25T10:09:43.423Z,19.40
2019-01-25T10:12:11.633Z,12.87
2019-01-25T10:14:39.819Z,18.40
2019-01-25T10:17:08.011Z,19.33
2019-01-25T10:19:36.218Z,18.43
2019-01-25T10:22:04.475Z,18.43
2019-01-25T10:24:32.668Z,17.03
2019-01-25T10:27:00.872Z,15.83
2019-01-25T10:29:29.063Z,16.57
2019-01-25T10:31:57.274Z,15.07
2019-01-25T10:34:25.464Z,13.93
2019-01-25T10:36:53.655Z,13.93
2019-01-25T10:39:21.859Z,14.60
2019-01-25T10:41:50.051Z,10.17
2019-01-25T10:44:18.265Z,9.53
2019-01-25T10:46:46.450Z,10.63
2019-01-25T10:49:14.644Z,11.50
2019-01-25T10:51:42.845Z,10.97
2019-01-25T10:54:11.031Z,12.47
2019-01-25T10:56:41.906Z,11.63
2019-01-25T10:59:09.160Z,20.50
2019-01-25T11:01:37.339Z,11.80
2019-01-25T11:04:05.535Z,9.27
2019-01-25T11:06:33.727Z,10.43
2019-01-25T11:09:01.923Z,10.03
2019-01-25T11:11:30.115Z,11.23
2019-01-25T11:13:58.345Z,10.43
2019-01-25T11:16:26.518Z,10.33
2019-01-25T11:18:54.707Z,10.47
2019-01-25T11:21:22.899Z,9.77
2019-01-25T11:23:51.096Z,10.20
2019-01-25T11:26:19.295Z,8.00
2019-01-25T11:28:47.479Z,4.30
2019-01-25T11:31:15.671Z,6.63
2019-01-25T11:33:43.881Z,9.00
2019-01-25T11:36:12.071Z,6.23
2019-01-25T11:38:40.259Z,11.30
2019-01-25T11:41:08.464Z,11.00
2019-01-25T11:43:36.656Z,9.03
2019-01-25T11:46:04.907Z,10.37
2019-01-25T11:48:33.115Z,9.53
2019-01-25T11:51:01.308Z,11.73
2019-01-25T11:53:29.511Z,11.80
2019-01-25T11:55:57.702Z,10.23
2019-01-25T11:58:25.956Z,11.00
2019-01-25T12:00:54.175Z,9.37
2019-01-25T12:03:22.372Z,10.70
2019-01-25T12:05:50.575Z,9.80
2019-01-25T12:08:18.776Z,7.43
2019-01-25T12:10:46.975Z,9.37
2019-01-25T12:13:16.287Z,6.67
2019-01-25T12:15:44.751Z,8.67
2019-01-25T12:18:12.994Z,8.97
2019-01-25T12:20:41.218Z,9.03
2019-01-25T12:23:09.416Z,10.43
2019-01-25T12:25:37.619Z,10.60
2019-01-25T12:28:05.811Z,11.33
2019-01-25T12:30:38.149Z,9.80
2019-01-25T12:33:07.322Z,10.70
2019-01-25T12:35:37.647Z,8.93
2019-01-25T12:38:05.830Z,7.90
2019-01-25T12:40:34.397Z,5.33
2019-01-25T12:43:02.599Z,6.10
2019-01-25T12:45:31.523Z,6.57
2019-01-25T12:47:59.727Z,6.80
2019-01-25T12:50:39.815Z,6.10
2019-01-25T12:53:09.768Z,6.00
2019-01-25T12:55:38.036Z,8.57
2019-01-25T12:58:06.364Z,9.03
2019-01-25T13:00:34.566Z,8.67
2019-01-25T13:03:02.763Z,6.27
2019-01-25T13:05:30.963Z,6.30
2019-01-25T13:07:59.167Z,7.10
2019-01-25T13:10:28.608Z,6.37
2019-01-25T13:12:56.816Z,12.10
2019-01-25T13:15:25.011Z,9.20
2019-01-25T13:17:53.207Z,10.37
2019-01-25T13:20:27.019Z,5.87
2019-01-25T13:22:55.284Z,8.33
2019-01-25T13:25:23.488Z,10.13
2019-01-25T13:27:51.784Z,10.63
2019-01-25T13:30:24.984Z,11.07
2019-01-25T13:32:53.181Z,10.37
2019-01-25T13:35:21.455Z,11.77
2019-01-25T13:37:49.735Z,4.63
2019-01-25T13:40:20.077Z,12.93
2019-01-25T13:42:48.275Z,14.97
2019-01-25T13:45:20.514Z,11.27
2019-01-25T13:47:48.702Z,16.17
2019-01-25T13:50:30.050Z,10.77
2019-01-25T13:52:58.260Z,8.97
2019-01-25T13:55:26.451Z,12.37
2019-01-25T13:57:54.650Z,8.43
2019-01-25T14:00:27.744Z,11.77
2019-01-25T14:02:55.943Z,8.10
2019-01-25T14:05:24.127Z,6.03
2019-01-25T14:07:52.315Z,12.87
2019-01-25T14:10:31.939Z,10.10
2019-01-25T14:13:19.636Z,15.73
2019-01-25T14:15:47.840Z,14.03
2019-01-25T14:18:16.046Z,13.30
2019-01-25T14:20:44.235Z,28.13
2019-01-25T14:23:12.444Z,11.83
2019-01-25T14:25:40.640Z,8.63
2019-01-25T14:28:08.847Z,7.40
2019-01-25T14:30:38.972Z,8.60
2019-01-25T14:33:07.340Z,5.93
2019-01-25T14:35:35.627Z,13.40
2019-01-25T14:38:03.887Z,12.03
2019-01-25T14:40:32.083Z,15.37
2019-01-25T14:43:00.279Z,12.83
2019-01-25T14:45:28.471Z,7.47
2019-01-25T14:47:56.663Z,10.83
2019-01-25T14:50:27.656Z,6.17
2019-01-25T14:52:55.851Z,8.50
2019-01-25T14:55:24.044Z,5.83
2019-01-25T14:57:52.243Z,6.37
2019-01-25T15:00:20.436Z,5.10
2019-01-25T15:02:48.628Z,7.50
2019-01-25T15:05:18.166Z,5.17
2019-01-25T15:07:46.351Z,5.93
2019-01-25T15:10:20.231Z,7.63
2019-01-25T15:12:48.975Z,6.67
2019-01-25T15:15:17.174Z,6.87
2019-01-25T15:17:45.381Z,6.83
2019-01-25T15:20:16.767Z,9.43
2019-01-25T15:22:44.963Z,8.50
2019-01-25T15:25:13.155Z,7.17
2019-01-25T15:27:41.355Z,7.57
2019-01-25T15:30:15.424Z,7.90
2019-01-25T15:32:43.628Z,12.53
2019-01-25T15:35:13.155Z,12.20
2019-01-25T15:37:42.024Z,9.97
2019-01-25T15:40:12.552Z,9.67
2019-01-25T15:42:40.747Z,9.43
2019-01-25T15:45:11.479Z,14.03
2019-01-25T15:47:39.680Z,9.97
2019-01-25T15:50:23.046Z,11.60
2019-01-25T15:52:51.247Z,13.50
2019-01-25T15:55:19.708Z,12.53
2019-01-25T15:57:47.907Z,37.13
2019-01-25T16:00:18.233Z,11.97
2019-01-25T16:02:46.431Z,13.07
2019-01-25T16:05:16.260Z,10.20
2019-01-25T16:07:44.463Z,10.53
2019-01-25T16:10:15.267Z,11.33
2019-01-25T16:12:43.463Z,16.63
2019-01-25T16:15:14.923Z,14.83
2019-01-25T16:17:43.121Z,8.17
2019-01-25T16:20:13.446Z,6.10
2019-01-25T16:22:41.655Z,14.90
2019-01-25T16:25:12.383Z,6.10
2019-01-25T16:27:40.579Z,14.70
2019-01-25T16:30:12.080Z,14.50
2019-01-25T16:32:40.284Z,10.43
2019-01-25T16:35:09.715Z,18.57
2019-01-25T16:37:37.907Z,15.17
2019-01-25T16:40:09.370Z,13.80
2019-01-25T16:42:37.555Z,9.77
2019-01-25T16:45:09.003Z,13.27
2019-01-25T16:47:37.207Z,10.87
2019-01-25T16:50:06.846Z,16.00
2019-01-25T16:52:35.036Z,11.90
2019-01-25T16:55:03.303Z,13.83
2019-01-25T16:57:31.507Z,10.50
2019-01-25T16:59:59.711Z,12.93
2019-01-25T17:02:27.904Z,11.13
2019-01-25T17:04:56.095Z,12.57
2019-01-25T17:07:24.296Z,13.10
2019-01-25T17:09:52.486Z,12.10
2019-01-25T17:12:20.692Z,10.80
2019-01-25T17:14:48.883Z,10.03
2019-01-25T17:17:17.075Z,12.53
2019-01-25T17:19:45.278Z,12.80
2019-01-25T17:22:13.467Z,13.53
2019-01-25T17:24:41.656Z,10.43
2019-01-25T17:27:09.863Z,10.50
2019-01-25T17:29:38.054Z,13.10
2019-01-25T17:32:06.823Z,11.90
2019-01-25T17:34:35.017Z,12.57
2019-01-25T17:37:03.203Z,11.87
2019-01-25T17:39:31.411Z,13.80
2019-01-25T17:41:59.593Z,11.27
2019-01-25T17:44:27.783Z,10.93
2019-01-25T17:46:55.979Z,9.67
2019-01-25T17:49:24.178Z,11.83
2019-01-25T17:51:52.367Z,11.10
2019-01-25T17:54:20.595Z,12.73
2019-01-25T17:56:48.783Z,11.83
2019-01-25T17:59:16.976Z,14.80
2019-01-25T18:01:45.170Z,9.23
2019-01-25T18:04:13.363Z,12.10
2019-01-25T18:06:41.563Z,12.47
2019-01-25T18:09:09.764Z,12.10
2019-01-25T18:11:57.379Z,13.03
2019-01-25T18:14:25.584Z,13.80
2019-01-25T18:16:54.343Z,12.40
2019-01-25T18:19:22.535Z,16.87
2019-01-25T18:21:50.734Z,18.60
2019-01-25T18:24:18.923Z,12.20
2019-01-25T18:26:47.116Z,15.90
2019-01-25T18:29:15.319Z,13.30
2019-01-25T18:31:43.516Z,14.87
2019-01-25T18:34:11.721Z,12.20
2019-01-25T18:36:39.928Z,10.83
2019-01-25T18:39:08.132Z,16.10
2019-01-25T18:41:36.307Z,10.93
2019-01-25T18:44:04.575Z,9.53
2019-01-25T18:46:32.775Z,12.17
2019-01-25T18:49:00.963Z,15.23
2019-01-25T18:51:29.154Z,10.67
2019-01-25T18:53:57.351Z,15.33
2019-01-25T18:56:25.539Z,12.67
2019-01-25T18:58:53.817Z,13.53
2019-01-25T19:01:22.003Z,12.37
2019-01-25T19:03:50.730Z,14.20
2019-01-25T19:06:18.966Z,12.90
2019-01-25T19:08:47.171Z,14.57
2019-01-25T19:11:15.363Z,13.30
2019-01-25T19:13:43.556Z,13.60
2019-01-25T19:16:11.750Z,13.23
2019-01-25T19:18:39.943Z,8.87
2019-01-25T19:21:08.411Z,9.50
2019-01-25T19:23:36.606Z,15.37
2019-01-25T19:26:04.805Z,13.03
2019-01-25T19:28:32.999Z,13.13
2019-01-25T19:31:01.276Z,9.10
2019-01-25T19:33:29.483Z,12.27
2019-01-25T19:35:57.679Z,14.20
2019-01-25T19:38:25.871Z,12.50
2019-01-25T19:40:54.071Z,11.73
2019-01-25T19:43:22.269Z,12.80
2019-01-25T19:45:50.459Z,9.70
2019-01-25T19:48:18.651Z,11.23
2019-01-25T19:50:46.843Z,12.60
2019-01-25T19:53:15.078Z,12.10
2019-01-25T19:55:43.311Z,9.57
2019-01-25T19:58:13.667Z,10.40
2019-01-25T20:00:44.459Z,10.07
2019-01-25T20:03:12.649Z,10.20
2019-01-25T20:05:40.848Z,10.10
2019-01-25T20:08:09.113Z,11.53
2019-01-25T20:10:37.332Z,11.00
2019-01-25T20:13:06.359Z,9.43
2019-01-25T20:15:34.560Z,10.47
2019-01-25T20:18:03.591Z,12.40
2019-01-25T20:20:34.699Z,8.40
2019-01-25T20:23:02.905Z,11.17
2019-01-25T20:25:31.087Z,9.33
2019-01-25T20:27:59.759Z,11.60
2019-01-25T20:30:33.900Z,8.80
2019-01-25T20:33:03.839Z,8.17
2019-01-25T20:35:43.153Z,9.23
2019-01-25T20:38:11.359Z,10.60
2019-01-25T20:40:39.619Z,11.30
2019-01-25T20:43:07.807Z,8.03
2019-01-25T20:45:40.551Z,10.60
2019-01-25T20:48:09.108Z,10.27
2019-01-25T20:50:38.159Z,9.13
2019-01-25T20:53:08.840Z,12.27
2019-01-25T20:55:37.038Z,12.73
2019-01-25T20:58:05.515Z,8.80
2019-01-25T21:00:35.480Z,11.70
2019-01-25T21:03:04.024Z,9.13
2019-01-25T21:05:32.223Z,9.93
2019-01-25T21:08:00.415Z,5.87
2019-01-25T21:10:28.609Z,9.77
2019-01-25T21:12:56.807Z,7.23
2019-01-25T21:15:34.816Z,9.97
2019-01-25T21:17:57.296Z,7.97
2019-01-25T21:20:40.022Z,8.40
2019-01-25T21:23:08.207Z,11.03
2019-01-25T21:25:36.411Z,11.20
2019-01-25T21:28:05.344Z,10.93
2019-01-25T21:30:37.120Z,7.57
2019-01-25T21:33:06.307Z,10.30
2019-01-25T21:35:34.500Z,9.20
2019-01-25T21:38:02.687Z,7.13
2019-01-25T21:40:32.523Z,9.33
2019-01-25T21:43:00.724Z,10.00
2019-01-25T21:45:30.643Z,7.23
2019-01-25T21:47:58.991Z,9.83
2019-01-25T21:50:30.183Z,9.07
2019-01-25T21:52:58.371Z,10.23
2019-01-25T21:55:26.576Z,10.30
2019-01-25T21:57:54.762Z,9.27
2019-01-25T22:00:25.755Z,10.30
2019-01-25T22:02:53.959Z,12.13
2019-01-25T22:05:22.139Z,8.67
2019-01-25T22:07:50.344Z,7.90
2019-01-25T22:10:27.475Z,7.53
2019-01-25T22:12:55.685Z,10.83
2019-01-25T22:15:23.871Z,10.67
2019-01-25T22:17:52.058Z,10.57
2019-01-25T22:20:22.196Z,8.23
2019-01-25T22:22:50.399Z,6.30
2019-01-25T22:25:18.587Z,10.80
2019-01-25T22:27:48.623Z,8.43
2019-01-25T22:30:19.056Z,8.37
2019-01-25T22:32:47.247Z,8.13
2019-01-25T22:35:15.434Z,8.67
2019-01-25T22:37:43.635Z,9.83
2019-01-25T22:40:20.452Z,7.27
2019-01-25T22:42:48.651Z,9.10
2019-01-25T22:45:21.823Z,14.83
2019-01-25T22:47:50.008Z,9.60
2019-01-25T22:50:23.735Z,7.67
2019-01-25T22:52:51.919Z,10.33
2019-01-25T22:55:21.264Z,11.73
2019-01-25T22:57:49.527Z,8.47
2019-01-25T23:00:51.202Z,12.50
2019-01-25T23:03:34.674Z,9.80
2019-01-25T23:06:22.843Z,11.70
2019-01-25T23:08:51.036Z,10.30
2019-01-25T23:11:19.294Z,10.10
2019-01-25T23:13:47.494Z,13.73
2019-01-25T23:16:15.687Z,12.17
2019-01-25T23:18:44.178Z,15.00
2019-01-25T23:21:12.367Z,12.77
2019-01-25T23:23:40.571Z,12.47
2019-01-25T23:26:08.759Z,10.03
2019-01-25T23:28:36.951Z,15.73
2019-01-25T23:31:05.146Z,8.50
2019-01-25T23:33:33.351Z,13.67
2019-01-25T23:36:01.577Z,13.00
2019-01-25T23:38:29.803Z,10.37
2019-01-25T23:40:58.007Z,10.67
2019-01-25T23:43:26.201Z,15.27
2019-01-25T23:45:54.405Z,14.20
2019-01-25T23:48:22.591Z,16.00
2019-01-25T23:50:50.782Z,14.70
2019-01-25T23:53:18.987Z,14.33
2019-01-25T23:55:47.169Z,8.60
2019-01-25T23:58:15.360Z,15.77
